Time,TemperatureF,DewpointF,PressureIn,WindDirection,WindDirectionDegrees,WindSpeedMPH,WindSpeedGustMPH,Humidity,HourlyPrecipIn,Conditions,Clouds,dailyrainin,SoftwareType,DateUTC
2013-08-31 00:13:00,66.0,61.0,29.88,North,355,1.0,4.0,85,0.00,,,0.00,,2013-08-31 05:13:00,
2013-08-31 00:23:00,65.0,61.0,29.88,ESE,109,0.0,4.0,86,0.00,,,0.00,,2013-08-31 05:23:00,
2013-08-31 00:42:00,65.0,61.0,29.88,NE,40,0.0,4.0,86,0.00,,,0.00,,2013-08-31 05:42:00,
2013-08-31 00:53:00,64.0,60.0,29.89,ESE,116,0.0,2.0,87,0.00,,,0.00,,2013-08-31 05:53:00,
2013-08-31 01:12:00,64.0,60.0,29.88,NE,51,1.0,4.0,88,0.00,,,0.00,,2013-08-31 06:12:00,
2013-08-31 01:22:00,64.0,60.0,29.89,NE,47,0.0,4.0,88,0.00,,,0.00,,2013-08-31 06:22:00,
2013-08-31 01:42:00,63.0,60.0,29.89,NE,36,0.0,3.0,89,0.00,,,0.00,,2013-08-31 06:42:00,
2013-08-31 01:52:00,63.0,60.0,29.88,NE,36,0.0,0.0,90,0.00,,,0.00,,2013-08-31 06:52:00,
2013-08-31 02:12:00,62.0,59.0,29.88,NE,36,0.0,1.0,91,0.00,,,0.00,,2013-08-31 07:12:00,
2013-08-31 02:22:00,62.0,60.0,29.87,NE,41,1.0,2.0,92,0.00,,,0.00,,2013-08-31 07:22:00,
2013-08-31 02:42:00,62.0,59.0,29.87,ENE,57,0.0,3.0,91,0.00,,,0.00,,2013-08-31 07:42:00,
2013-08-31 02:52:00,62.0,60.0,29.86,NE,55,1.0,3.0,92,0.00,,,0.00,,2013-08-31 07:52:00,
2013-08-31 03:12:00,61.0,59.0,29.87,NE,55,0.0,2.0,92,0.00,,,0.00,,2013-08-31 08:12:00,
2013-08-31 03:22:00,61.0,59.0,29.87,NE,55,0.0,2.0,93,0.00,,,0.00,,2013-08-31 08:22:00,
2013-08-31 03:42:00,61.0,59.0,29.87,NE,55,0.0,1.0,93,0.00,,,0.00,,2013-08-31 08:42:00,
2013-08-31 03:52:00,61.0,59.0,29.87,NE,55,0.0,0.0,94,0.00,,,0.00,,2013-08-31 08:52:00,
2013-08-31 04:12:00,61.0,59.0,29.88,NE,55,0.0,0.0,94,0.00,,,0.00,,2013-08-31 09:12:00,
2013-08-31 04:23:00,60.0,58.0,29.89,NE,55,0.0,0.0,93,0.00,,,0.00,,2013-08-31 09:23:00,
2013-08-31 04:44:00,59.0,57.0,29.89,NE,55,0.0,0.0,94,0.00,,,0.00,,2013-08-31 09:44:00,
2013-08-31 04:53:00,59.0,57.0,29.90,NE,55,0.0,0.0,94,0.00,,,0.00,,2013-08-31 09:53:00,
2013-08-31 05:12:00,59.0,58.0,29.89,NE,55,0.0,0.0,95,0.00,,,0.00,,2013-08-31 10:12:00,
2013-08-31 05:23:00,59.0,58.0,29.88,NE,55,0.0,1.0,96,0.00,,,0.00,,2013-08-31 10:23:00,
2013-08-31 05:43:00,59.0,58.0,29.88,NE,55,0.0,0.0,96,0.00,,,0.00,,2013-08-31 10:43:00,
2013-08-31 05:53:00,59.0,58.0,29.88,NE,55,0.0,1.0,96,0.00,,,0.00,,2013-08-31 10:53:00,
2013-08-31 06:12:00,59.0,58.0,29.88,NE,55,0.0,0.0,96,0.00,,,0.00,,2013-08-31 11:12:00,
2013-08-31 06:22:00,58.0,57.0,29.87,NE,55,0.0,1.0,96,0.00,,,0.00,,2013-08-31 11:22:00,
2013-08-31 06:52:00,58.0,57.0,29.87,NE,55,0.0,1.0,97,0.00,,,0.00,,2013-08-31 11:52:00,
2013-08-31 07:11:00,58.0,57.0,29.87,NNE,32,0.0,3.0,97,0.00,,,0.00,,2013-08-31 12:11:00,
2013-08-31 07:22:00,58.0,57.0,29.86,NE,38,0.0,2.0,97,0.00,,,0.00,,2013-08-31 12:22:00,
2013-08-31 07:42:00,59.0,58.0,29.86,NE,38,0.0,2.0,97,0.00,,,0.00,,2013-08-31 12:42:00,
2013-08-31 07:52:00,59.0,58.0,29.87,North,360,0.0,3.0,97,0.00,,,0.00,,2013-08-31 12:52:00,
2013-08-31 08:11:00,60.0,59.0,29.87,NE,49,1.0,5.0,97,0.00,,,0.00,,2013-08-31 13:11:00,
2013-08-31 08:22:00,61.0,60.0,29.86,NNE,15,1.0,5.0,97,0.00,,,0.00,,2013-08-31 13:22:00,
2013-08-31 08:42:00,62.0,61.0,29.87,ENE,58,0.0,2.0,97,0.00,,,0.00,,2013-08-31 13:42:00,
2013-08-31 08:52:00,63.0,62.0,29.87,SE,132,1.0,5.0,96,0.00,,,0.00,,2013-08-31 13:52:00,
2013-08-31 09:12:00,65.0,63.0,29.87,SSE,149,0.0,4.0,93,0.00,,,0.00,,2013-08-31 14:12:00,
2013-08-31 09:22:00,66.0,63.0,29.88,SE,138,0.0,2.0,89,0.00,,,0.00,,2013-08-31 14:22:00,
2013-08-31 09:52:00,69.0,64.0,29.88,SE,132,2.0,4.0,84,0.00,,,0.00,,2013-08-31 14:52:00,
2013-08-31 10:11:00,69.0,64.0,29.87,SE,133,2.0,5.0,83,0.00,,,0.00,,2013-08-31 15:11:00,
2013-08-31 10:23:00,69.0,64.0,29.88,SW,215,1.0,6.0,83,0.00,,,0.00,,2013-08-31 15:23:00,
2013-08-31 10:44:00,69.0,64.0,29.88,South,179,2.0,6.0,83,0.00,,,0.00,,2013-08-31 15:44:00,
2013-08-31 10:55:00,70.0,64.0,29.87,SE,141,2.0,5.0,82,0.00,,,0.00,,2013-08-31 15:55:00,
2013-08-31 11:14:00,70.0,64.0,29.87,SE,128,1.0,5.0,80,0.00,,,0.00,,2013-08-31 16:14:00,
2013-08-31 11:25:00,72.0,65.0,29.87,WSW,248,0.0,4.0,78,0.00,,,0.00,,2013-08-31 16:25:00,
2013-08-31 11:44:00,72.0,64.0,29.87,ENE,78,1.0,3.0,76,0.00,,,0.00,,2013-08-31 16:44:00,
2013-08-31 11:52:00,72.0,64.0,29.87,South,190,1.0,2.0,76,0.00,,,0.00,,2013-08-31 16:52:00,
2013-08-31 12:13:00,74.0,65.0,29.87,SE,142,0.0,5.0,73,0.00,,,0.00,,2013-08-31 17:13:00,
2013-08-31 12:23:00,75.0,65.0,29.86,SE,145,0.0,2.0,72,0.00,,,0.00,,2013-08-31 17:23:00,
2013-08-31 12:43:00,75.0,65.0,29.86,SE,124,0.0,4.0,71,0.00,,,0.00,,2013-08-31 17:43:00,
2013-08-31 12:53:00,77.0,66.0,29.86,SE,146,1.0,3.0,69,0.00,,,0.00,,2013-08-31 17:53:00,
2013-08-31 13:12:00,76.0,65.0,29.85,SE,140,2.0,4.0,68,0.00,,,0.00,,2013-08-31 18:12:00,
2013-08-31 13:22:00,77.0,65.0,29.85,ESE,106,1.0,3.0,67,0.00,,,0.00,,2013-08-31 18:22:00,
2013-08-31 13:42:00,77.0,65.0,29.84,South,180,2.0,6.0,66,0.00,,,0.00,,2013-08-31 18:42:00,
2013-08-31 13:52:00,78.0,65.0,29.84,SE,128,2.0,4.0,64,0.00,,,0.00,,2013-08-31 18:52:00,
2013-08-31 14:12:00,79.0,65.0,29.83,SE,139,2.0,6.0,63,0.00,,,0.00,,2013-08-31 19:12:00,
2013-08-31 14:22:00,79.0,65.0,29.83,South,178,1.0,5.0,63,0.00,,,0.00,,2013-08-31 19:22:00,
2013-08-31 14:42:00,80.0,65.0,29.83,ENE,78,1.0,4.0,61,0.00,,,0.00,,2013-08-31 19:42:00,
2013-08-31 14:52:00,80.0,66.0,29.83,SSE,163,1.0,5.0,62,0.00,,,0.00,,2013-08-31 19:52:00,
2013-08-31 15:12:00,80.0,64.0,29.82,NE,38,4.0,8.0,59,0.00,,,0.00,,2013-08-31 20:12:00,
2013-08-31 15:22:00,80.0,65.0,29.82,SSE,167,1.0,6.0,60,0.00,,,0.00,,2013-08-31 20:22:00,
2013-08-31 15:42:00,80.0,64.0,29.82,ESE,118,2.0,6.0,58,0.00,,,0.00,,2013-08-31 20:42:00,
2013-08-31 15:53:00,81.0,65.0,29.82,SE,140,2.0,8.0,59,0.00,,,0.00,,2013-08-31 20:53:00,
2013-08-31 16:12:00,81.0,65.0,29.82,SW,223,1.0,5.0,59,0.00,,,0.00,,2013-08-31 21:12:00,
2013-08-31 16:22:00,82.0,66.0,29.82,ENE,59,0.0,3.0,58,0.00,,,0.00,,2013-08-31 21:22:00,
2013-08-31 16:54:00,82.0,66.0,29.80,SE,137,1.0,7.0,58,0.00,,,0.00,,2013-08-31 21:54:00,
2013-08-31 17:13:00,82.0,64.0,29.80,SSE,150,1.0,4.0,55,0.00,,,0.00,,2013-08-31 22:13:00,
2013-08-31 17:23:00,82.0,64.0,29.79,SSE,152,2.0,6.0,54,0.00,,,0.00,,2013-08-31 22:23:00,
2013-08-31 17:43:00,82.0,64.0,29.79,South,182,2.0,5.0,54,0.00,,,0.00,,2013-08-31 22:43:00,
2013-08-31 17:53:00,82.0,64.0,29.79,South,188,1.0,7.0,54,0.00,,,0.00,,2013-08-31 22:53:00,
2013-08-31 18:12:00,82.0,64.0,29.78,SSE,153,2.0,4.0,54,0.00,,,0.00,,2013-08-31 23:12:00,
2013-08-31 18:22:00,81.0,63.0,29.78,SSE,154,2.0,3.0,55,0.00,,,0.00,,2013-08-31 23:22:00,
2013-08-31 18:42:00,81.0,65.0,29.76,SE,128,0.0,2.0,59,0.00,,,0.00,,2013-08-31 23:42:00,
2013-08-31 18:52:00,81.0,66.0,29.76,SE,129,0.0,2.0,60,0.00,,,0.00,,2013-08-31 23:52:00,
2013-08-31 19:11:00,80.0,66.0,29.76,SE,128,0.0,2.0,62,0.00,,,0.00,,2013-09-01 00:11:00,
2013-08-31 19:22:00,79.0,65.0,29.78,SE,128,0.0,0.0,63,0.00,,,0.00,,2013-09-01 00:22:00,
2013-08-31 19:42:00,78.0,66.0,29.80,SE,128,0.0,1.0,66,0.00,,,0.00,,2013-09-01 00:42:00,
2013-08-31 19:52:00,76.0,65.0,29.81,SE,128,0.0,0.0,70,0.00,,,0.00,,2013-09-01 00:52:00,
2013-08-31 20:11:00,75.0,65.0,29.81,SE,128,0.0,0.0,72,0.00,,,0.00,,2013-09-01 01:11:00,
2013-08-31 20:22:00,74.0,65.0,29.80,SE,128,0.0,0.0,74,0.00,,,0.00,,2013-09-01 01:22:00,
2013-08-31 20:42:00,74.0,66.0,29.81,SE,129,0.0,0.0,75,0.00,,,0.00,,2013-09-01 01:42:00,
2013-08-31 20:52:00,73.0,66.0,29.81,SE,128,0.0,0.0,78,0.00,,,0.00,,2013-09-01 01:52:00,
2013-08-31 21:12:00,72.0,65.0,29.81,SE,128,0.0,0.0,79,0.00,,,0.00,,2013-09-01 02:12:00,
2013-08-31 21:22:00,71.0,65.0,29.81,SE,128,0.0,1.0,80,0.00,,,0.00,,2013-09-01 02:22:00,
2013-08-31 21:43:00,71.0,65.0,29.82,SE,128,0.0,0.0,81,0.00,,,0.00,,2013-09-01 02:43:00,
2013-08-31 21:53:00,70.0,64.0,29.82,SE,128,0.0,0.0,82,0.00,,,0.00,,2013-09-01 02:53:00,
2013-08-31 22:12:00,70.0,65.0,29.82,SE,128,0.0,0.0,83,0.00,,,0.00,,2013-09-01 03:12:00,
2013-08-31 22:23:00,69.0,64.0,29.82,SE,129,0.0,0.0,84,0.00,,,0.00,,2013-09-01 03:23:00,
2013-08-31 22:44:00,69.0,64.0,29.82,SE,129,0.0,1.0,85,0.00,,,0.00,,2013-09-01 03:44:00,
2013-08-31 22:54:00,69.0,65.0,29.82,SE,129,0.0,0.0,86,0.00,,,0.00,,2013-09-01 03:54:00,
2013-08-31 23:03:00,-999.0,-99.9,29.81,SE,129,1.0,2.0,-999,-99.99,,,-99.99,,2013-09-01 04:03:00,
2013-08-31 23:14:00,68.0,64.0,29.81,SE,129,1.0,2.0,87,0.00,,,0.00,,2013-09-01 04:14:00,
2013-08-31 23:25:00,68.0,64.0,29.80,SSW,198,1.0,3.0,86,0.00,,,0.00,,2013-09-01 04:25:00,
2013-08-31 23:43:00,68.0,64.0,29.79,SSE,155,0.0,2.0,86,0.00,,,0.00,,2013-09-01 04:43:00,
2013-08-31 23:54:00,68.0,64.0,29.79,SE,145,0.0,3.0,87,0.00,,,0.00,,2013-09-01 04:54:00,